sensor_id;sensor_type;location;lat;lon;timestamp;pressure;altitude;pressure_sealevel;temperature;humidity
24858;BME280;12935;50.782;6.074;2022-08-19T00:00:06;99307.72;;;19.21;100.00
24858;BME280;12935;50.782;6.074;2022-08-19T00:02:33;99308.97;;;19.20;100.00
24858;BME280;12935;50.782;6.074;2022-08-19T00:04:58;99310.47;;;19.21;100.00
24858;BME280;12935;50.782;6.074;2022-08-19T00:07:23;99303.09;;;19.18;100.00
24858;BME280;12935;50.782;6.074;2022-08-19T00:09:49;99304.28;;;19.08;100.00
24858;BME280;12935;50.782;6.074;2022-08-19T00:12:14;99310.91;;;19.10;100.00
24858;BME280;12935;50.782;6.074;2022-08-19T00:14:40;99308.47;;;19.12;100.00
24858;BME280;12935;50.782;6.074;2022-08-19T00:17:06;99304.16;;;19.11;100.00
24858;BME280;12935;50.782;6.074;2022-08-19T00:19:32;99304.59;;;19.10;100.00
24858;BME280;12935;50.782;6.074;2022-08-19T00:21:58;99299.66;;;19.05;100.00
24858;BME280;12935;50.782;6.074;2022-08-19T00:24:24;99292.13;;;19.05;100.00
24858;BME280;12935;50.782;6.074;2022-08-19T00:26:49;99287.50;;;19.02;100.00
24858;BME280;12935;50.782;6.074;2022-08-19T00:29:17;99296.13;;;19.04;100.00
24858;BME280;12935;50.782;6.074;2022-08-19T00:31:44;99295.50;;;19.00;100.00
24858;BME280;12935;50.782;6.074;2022-08-19T00:34:10;99279.34;;;18.99;100.00
24858;BME280;12935;50.782;6.074;2022-08-19T00:36:37;99279.66;;;19.01;100.00
24858;BME280;12935;50.782;6.074;2022-08-19T00:39:03;99289.81;;;19.04;100.00
24858;BME280;12935;50.782;6.074;2022-08-19T00:41:28;99284.88;;;18.99;100.00
24858;BME280;12935;50.782;6.074;2022-08-19T00:44:25;99285.97;;;19.01;100.00
24858;BME280;12935;50.782;6.074;2022-08-19T00:46:53;99283.00;;;18.96;100.00
24858;BME280;12935;50.782;6.074;2022-08-19T00:52:00;99280.69;;;18.94;100.00
24858;BME280;12935;50.782;6.074;2022-08-19T00:54:26;99280.25;;;18.96;100.00
24858;BME280;12935;50.782;6.074;2022-08-19T00:56:52;99290.88;;;18.97;100.00
24858;BME280;12935;50.782;6.074;2022-08-19T00:59:19;99281.78;;;18.97;100.00
24858;BME280;12935;50.782;6.074;2022-08-19T01:01:45;99297.03;;;19.01;100.00
24858;BME280;12935;50.782;6.074;2022-08-19T01:04:12;99297.03;;;19.01;100.00
24858;BME280;12935;50.782;6.074;2022-08-19T01:06:38;99285.66;;;18.99;100.00
24858;BME280;12935;50.782;6.074;2022-08-19T01:09:06;99281.19;;;19.02;100.00
24858;BME280;12935;50.782;6.074;2022-08-19T01:11:34;99292.28;;;19.02;100.00
24858;BME280;12935;50.782;6.074;2022-08-19T01:14:00;99288.28;;;19.03;100.00
24858;BME280;12935;50.782;6.074;2022-08-19T01:16:27;99281.66;;;19.00;100.00
24858;BME280;12935;50.782;6.074;2022-08-19T01:18:53;99287.97;;;19.01;100.00
24858;BME280;12935;50.782;6.074;2022-08-19T01:21:23;99289.50;;;19.02;100.00
24858;BME280;12935;50.782;6.074;2022-08-19T01:23:50;99280.09;;;18.99;100.00
24858;BME280;12935;50.782;6.074;2022-08-19T01:26:19;99294.28;;;19.01;100.00
24858;BME280;12935;50.782;6.074;2022-08-19T01:28:46;99290.88;;;18.97;100.00
24858;BME280;12935;50.782;6.074;2022-08-19T01:31:15;99280.25;;;18.96;100.00
24858;BME280;12935;50.782;6.074;2022-08-19T01:33:41;99279.16;;;18.93;100.00
24858;BME280;12935;50.782;6.074;2022-08-19T01:36:13;99282.53;;;18.88;100.00
24858;BME280;12935;50.782;6.074;2022-08-19T01:38:41;99289.28;;;18.87;100.00
24858;BME280;12935;50.782;6.074;2022-08-19T01:41:07;99289.88;;;18.82;100.00
24858;BME280;12935;50.782;6.074;2022-08-19T01:43:33;99297.41;;;18.81;100.00
24858;BME280;12935;50.782;6.074;2022-08-19T01:45:59;99301.41;;;18.80;100.00
24858;BME280;12935;50.782;6.074;2022-08-19T01:48:24;99297.53;;;18.78;100.00
24858;BME280;12935;50.782;6.074;2022-08-19T01:50:49;99298.44;;;18.75;100.00
24858;BME280;12935;50.782;6.074;2022-08-19T01:53:15;99288.59;;;18.74;100.00
24858;BME280;12935;50.782;6.074;2022-08-19T01:55:42;99295.84;;;18.71;100.00
24858;BME280;12935;50.782;6.074;2022-08-19T01:58:14;99295.50;;;18.69;100.00
24858;BME280;12935;50.782;6.074;2022-08-19T02:00:42;99295.00;;;18.62;100.00
24858;BME280;12935;50.782;6.074;2022-08-19T02:03:07;99293.25;;;18.55;100.00
24858;BME280;12935;50.782;6.074;2022-08-19T02:05:34;99287.84;;;18.51;100.00
24858;BME280;12935;50.782;6.074;2022-08-19T02:07:59;99300.13;;;18.50;100.00
24858;BME280;12935;50.782;6.074;2022-08-19T02:10:25;99292.63;;;18.51;100.00
24858;BME280;12935;50.782;6.074;2022-08-19T02:12:50;99291.97;;;18.47;100.00
24858;BME280;12935;50.782;6.074;2022-08-19T02:15:17;99292.41;;;18.45;100.00
24858;BME280;12935;50.782;6.074;2022-08-19T02:17:44;99300.25;;;18.47;100.00
24858;BME280;12935;50.782;6.074;2022-08-19T02:20:10;99293.72;;;18.32;100.00
24858;BME280;12935;50.782;6.074;2022-08-19T02:22:36;99290.69;;;18.39;100.00
24858;BME280;12935;50.782;6.074;2022-08-19T02:25:01;99296.06;;;18.42;100.00
24858;BME280;12935;50.782;6.074;2022-08-19T02:27:27;99293.31;;;18.42;100.00
24858;BME280;12935;50.782;6.074;2022-08-19T02:29:52;99297.31;;;18.41;100.00
24858;BME280;12935;50.782;6.074;2022-08-19T02:32:18;99290.81;;;18.35;100.00
24858;BME280;12935;50.782;6.074;2022-08-19T02:34:44;99287.59;;;18.37;100.00
24858;BME280;12935;50.782;6.074;2022-08-19T02:37:10;99285.75;;;18.34;100.00
24858;BME280;12935;50.782;6.074;2022-08-19T02:39:56;99286.84;;;18.36;100.00
24858;BME280;12935;50.782;6.074;2022-08-19T02:42:21;99283.38;;;18.23;100.00
24858;BME280;12935;50.782;6.074;2022-08-19T02:44:46;99289.22;;;18.25;100.00
24858;BME280;12935;50.782;6.074;2022-08-19T02:47:12;99298.47;;;18.31;100.00
24858;BME280;12935;50.782;6.074;2022-08-19T02:49:39;99300.59;;;18.27;100.00
24858;BME280;12935;50.782;6.074;2022-08-19T02:52:04;99294.63;;;18.29;100.00
24858;BME280;12935;50.782;6.074;2022-08-19T02:54:30;99307.09;;;18.33;100.00
24858;BME280;12935;50.782;6.074;2022-08-19T02:56:55;99308.97;;;18.36;100.00
24858;BME280;12935;50.782;6.074;2022-08-19T02:59:20;99311.34;;;18.25;100.00
24858;BME280;12935;50.782;6.074;2022-08-19T03:01:46;99312.88;;;18.26;100.00
24858;BME280;12935;50.782;6.074;2022-08-19T03:04:13;99306.50;;;18.16;100.00
24858;BME280;12935;50.782;6.074;2022-08-19T03:06:41;99310.94;;;18.14;100.00
24858;BME280;12935;50.782;6.074;2022-08-19T03:09:08;99313.16;;;18.19;100.00
24858;BME280;12935;50.782;6.074;2022-08-19T03:11:33;99314.81;;;18.16;100.00
24858;BME280;12935;50.782;6.074;2022-08-19T03:13:59;99316.53;;;18.01;100.00
24858;BME280;12935;50.782;6.074;2022-08-19T03:16:26;99323.94;;;18.04;100.00
24858;BME280;12935;50.782;6.074;2022-08-19T03:18:52;99322.84;;;18.02;100.00
24858;BME280;12935;50.782;6.074;2022-08-19T03:21:21;99323.16;;;18.04;100.00
24858;BME280;12935;50.782;6.074;2022-08-19T03:23:47;99319.19;;;18.05;100.00
24858;BME280;12935;50.782;6.074;2022-08-19T03:26:12;99317.19;;;18.05;100.00
24858;BME280;12935;50.782;6.074;2022-08-19T03:28:40;99320.06;;;18.02;100.00
24858;BME280;12935;50.782;6.074;2022-08-19T03:31:10;99323.84;;;17.95;100.00
24858;BME280;12935;50.782;6.074;2022-08-19T03:33:36;99331.59;;;18.00;100.00
24858;BME280;12935;50.782;6.074;2022-08-19T03:36:17;99324.38;;;18.03;100.00
24858;BME280;12935;50.782;6.074;2022-08-19T03:38:45;99323.94;;;18.04;100.00
24858;BME280;12935;50.782;6.074;2022-08-19T03:41:17;99324.28;;;18.06;100.00
24858;BME280;12935;50.782;6.074;2022-08-19T03:43:43;99315.19;;;18.06;100.00
24858;BME280;12935;50.782;6.074;2022-08-19T03:46:19;99316.88;;;18.03;100.00
24858;BME280;12935;50.782;6.074;2022-08-19T03:48:50;99314.31;;;18.09;100.00
24858;BME280;12935;50.782;6.074;2022-08-19T03:51:39;99309.84;;;18.11;100.00
24858;BME280;12935;50.782;6.074;2022-08-19T03:54:08;99322.41;;;18.03;100.00
24858;BME280;12935;50.782;6.074;2022-08-19T03:56:36;99312.63;;;18.11;100.00
24858;BME280;12935;50.782;6.074;2022-08-19T03:59:03;99311.66;;;18.05;100.00
24858;BME280;12935;50.782;6.074;2022-08-19T04:01:29;99320.78;;;17.93;100.00
24858;BME280;12935;50.782;6.074;2022-08-19T04:03:58;99320.63;;;17.97;100.00
24858;BME280;12935;50.782;6.074;2022-08-19T04:06:32;99333.25;;;17.98;100.00
24858;BME280;12935;50.782;6.074;2022-08-19T04:09:00;99323.44;;;17.84;100.00
24858;BME280;12935;50.782;6.074;2022-08-19T04:11:29;99323.91;;;17.82;100.00
24858;BME280;12935;50.782;6.074;2022-08-19T04:13:55;99330.00;;;17.77;100.00
24858;BME280;12935;50.782;6.074;2022-08-19T04:16:22;99325.59;;;17.67;100.00
24858;BME280;12935;50.782;6.074;2022-08-19T04:18:49;99318.75;;;17.59;100.00
24858;BME280;12935;50.782;6.074;2022-08-19T04:21:17;99321.63;;;17.56;100.00
24858;BME280;12935;50.782;6.074;2022-08-19T04:23:43;99334.09;;;17.60;100.00
24858;BME280;12935;50.782;6.074;2022-08-19T04:26:17;99328.25;;;17.58;100.00
24858;BME280;12935;50.782;6.074;2022-08-19T04:28:43;99328.47;;;17.51;100.00
24858;BME280;12935;50.782;6.074;2022-08-19T04:31:14;99342.38;;;17.47;100.00
24858;BME280;12935;50.782;6.074;2022-08-19T04:33:40;99338.13;;;17.46;100.00
24858;BME280;12935;50.782;6.074;2022-08-19T04:36:06;99335.34;;;17.46;100.00
24858;BME280;12935;50.782;6.074;2022-08-19T04:38:31;99339.63;;;17.47;100.00
24858;BME280;12935;50.782;6.074;2022-08-19T04:40:56;99340.41;;;17.48;100.00
24858;BME280;12935;50.782;6.074;2022-08-19T04:43:40;99342.72;;;17.49;100.00
24858;BME280;12935;50.782;6.074;2022-08-19T04:46:10;99341.94;;;17.49;100.00
24858;BME280;12935;50.782;6.074;2022-08-19T04:48:38;99342.63;;;17.53;100.00
24858;BME280;12935;50.782;6.074;2022-08-19T04:51:08;99337.53;;;17.51;100.00
24858;BME280;12935;50.782;6.074;2022-08-19T04:53:35;99341.31;;;17.45;100.00
24858;BME280;12935;50.782;6.074;2022-08-19T04:56:06;99345.50;;;17.37;100.00
24858;BME280;12935;50.782;6.074;2022-08-19T04:58:33;99348.16;;;17.40;100.00
24858;BME280;12935;50.782;6.074;2022-08-19T05:00:58;99353.78;;;17.37;100.00
24858;BME280;12935;50.782;6.074;2022-08-19T05:03:25;99354.13;;;17.39;100.00
24858;BME280;12935;50.782;6.074;2022-08-19T05:05:51;99366.28;;;17.41;100.00
24858;BME280;12935;50.782;6.074;2022-08-19T05:08:19;99376.66;;;17.50;100.00
24858;BME280;12935;50.782;6.074;2022-08-19T05:10:47;99379.84;;;17.48;100.00
24858;BME280;12935;50.782;6.074;2022-08-19T05:13:13;99374.78;;;17.47;100.00
24858;BME280;12935;50.782;6.074;2022-08-19T05:15:39;99370.56;;;17.55;100.00
24858;BME280;12935;50.782;6.074;2022-08-19T05:18:05;99372.91;;;17.57;100.00
24858;BME280;12935;50.782;6.074;2022-08-19T05:20:49;99369.91;;;17.64;100.00
24858;BME280;12935;50.782;6.074;2022-08-19T05:23:32;99376.88;;;17.68;100.00
24858;BME280;12935;50.782;6.074;2022-08-19T05:25:58;99380.31;;;17.72;100.00
24858;BME280;12935;50.782;6.074;2022-08-19T05:28:23;99380.19;;;17.76;100.00
24858;BME280;12935;50.782;6.074;2022-08-19T05:30:49;99382.50;;;17.90;100.00
24858;BME280;12935;50.782;6.074;2022-08-19T05:33:16;99382.38;;;17.94;100.00
24858;BME280;12935;50.782;6.074;2022-08-19T05:35:41;99389.53;;;18.04;100.00
24858;BME280;12935;50.782;6.074;2022-08-19T05:38:07;99382.22;;;18.10;100.00
24858;BME280;12935;50.782;6.074;2022-08-19T05:40:34;99375.66;;;18.16;100.00
24858;BME280;12935;50.782;6.074;2022-08-19T05:43:02;99374.09;;;18.15;100.00
24858;BME280;12935;50.782;6.074;2022-08-19T05:45:27;99373.91;;;18.10;100.00
24858;BME280;12935;50.782;6.074;2022-08-19T05:47:53;99368.91;;;18.17;100.00
24858;BME280;12935;50.782;6.074;2022-08-19T05:50:19;99368.53;;;18.28;100.00
24858;BME280;12935;50.782;6.074;2022-08-19T05:52:45;99358.06;;;18.23;100.00
24858;BME280;12935;50.782;6.074;2022-08-19T05:55:10;99358.56;;;18.31;100.00
24858;BME280;12935;50.782;6.074;2022-08-19T05:57:36;99370.28;;;18.35;100.00
24858;BME280;12935;50.782;6.074;2022-08-19T06:00:01;99377.69;;;18.38;100.00
24858;BME280;12935;50.782;6.074;2022-08-19T06:02:30;99361.69;;;18.42;100.00
24858;BME280;12935;50.782;6.074;2022-08-19T06:04:58;99370.34;;;18.44;100.00
24858;BME280;12935;50.782;6.074;2022-08-19T06:07:23;99372.78;;;18.42;100.00
24858;BME280;12935;50.782;6.074;2022-08-19T06:09:49;99374.19;;;18.25;100.00
24858;BME280;12935;50.782;6.074;2022-08-19T06:12:14;99375.03;;;18.34;100.00
24858;BME280;12935;50.782;6.074;2022-08-19T06:14:39;99371.56;;;18.43;100.00
24858;BME280;12935;50.782;6.074;2022-08-19T06:17:06;99367.88;;;18.46;100.00
24858;BME280;12935;50.782;6.074;2022-08-19T06:19:31;99368.22;;;18.48;100.00
24858;BME280;12935;50.782;6.074;2022-08-19T06:21:58;99363.13;;;18.46;100.00
24858;BME280;12935;50.782;6.074;2022-08-19T06:24:25;99370.97;;;18.48;100.00
24858;BME280;12935;50.782;6.074;2022-08-19T06:26:53;99372.84;;;18.51;100.00
24858;BME280;12935;50.782;6.074;2022-08-19T06:29:22;99374.56;;;18.57;100.00
24858;BME280;12935;50.782;6.074;2022-08-19T06:31:50;99377.56;;;18.63;100.00
24858;BME280;12935;50.782;6.074;2022-08-19T06:34:16;99384.66;;;18.64;100.00
24858;BME280;12935;50.782;6.074;2022-08-19T06:36:45;99384.44;;;18.80;100.00
24858;BME280;12935;50.782;6.074;2022-08-19T06:39:14;99386.66;;;18.85;100.00
24858;BME280;12935;50.782;6.074;2022-08-19T06:41:42;99385.91;;;18.94;100.00
24858;BME280;12935;50.782;6.074;2022-08-19T06:44:09;99394.34;;;18.90;100.00
24858;BME280;12935;50.782;6.074;2022-08-19T06:46:36;99401.25;;;18.86;100.00
24858;BME280;12935;50.782;6.074;2022-08-19T06:49:01;99402.03;;;18.86;100.00
24858;BME280;12935;50.782;6.074;2022-08-19T06:51:27;99396.59;;;19.05;100.00
24858;BME280;12935;50.782;6.074;2022-08-19T06:53:54;99399.31;;;19.26;100.00
24858;BME280;12935;50.782;6.074;2022-08-19T06:56:22;99397.84;;;19.44;100.00
24858;BME280;12935;50.782;6.074;2022-08-19T06:58:50;99407.38;;;19.43;100.00
24858;BME280;12935;50.782;6.074;2022-08-19T07:01:18;99408.28;;;19.40;100.00
24858;BME280;12935;50.782;6.074;2022-08-19T07:03:44;99404.97;;;19.54;100.00
24858;BME280;12935;50.782;6.074;2022-08-19T07:06:12;99402.13;;;19.67;100.00
24858;BME280;12935;50.782;6.074;2022-08-19T07:08:39;99403.94;;;19.60;100.00
24858;BME280;12935;50.782;6.074;2022-08-19T07:11:09;99407.97;;;19.38;100.00
24858;BME280;12935;50.782;6.074;2022-08-19T07:13:36;99413.38;;;19.41;100.00
24858;BME280;12935;50.782;6.074;2022-08-19T07:16:14;99424.72;;;19.56;100.00
24858;BME280;12935;50.782;6.074;2022-08-19T07:18:40;99423.34;;;19.60;100.00
24858;BME280;12935;50.782;6.074;2022-08-19T07:21:13;99428.94;;;19.79;100.00
24858;BME280;12935;50.782;6.074;2022-08-19T07:23:40;99434.34;;;19.82;100.00
24858;BME280;12935;50.782;6.074;2022-08-19T07:26:13;99425.78;;;19.99;100.00
24858;BME280;12935;50.782;6.074;2022-08-19T07:28:39;99426.56;;;20.08;100.00
24858;BME280;12935;50.782;6.074;2022-08-19T07:31:06;99430.56;;;20.07;100.00
24858;BME280;12935;50.782;6.074;2022-08-19T07:33:32;99433.59;;;20.00;100.00
24858;BME280;12935;50.782;6.074;2022-08-19T07:35:58;99439.00;;;19.94;100.00
24858;BME280;12935;50.782;6.074;2022-08-19T07:38:24;99435.72;;;19.78;100.00
24858;BME280;12935;50.782;6.074;2022-08-19T07:40:49;99443.28;;;19.77;100.00
24858;BME280;12935;50.782;6.074;2022-08-19T07:43:16;99441.09;;;19.72;100.00
24858;BME280;12935;50.782;6.074;2022-08-19T07:45:45;99444.06;;;19.87;100.00
24858;BME280;12935;50.782;6.074;2022-08-19T07:48:12;99448.69;;;19.81;100.00
24858;BME280;12935;50.782;6.074;2022-08-19T07:50:37;99443.13;;;19.81;100.00
24858;BME280;12935;50.782;6.074;2022-08-19T07:53:02;99459.78;;;19.81;100.00
24858;BME280;12935;50.782;6.074;2022-08-19T07:55:28;99458.75;;;20.06;100.00
24858;BME280;12935;50.782;6.074;2022-08-19T07:57:53;99467.09;;;20.24;100.00
24858;BME280;12935;50.782;6.074;2022-08-19T08:00:18;99457.69;;;20.30;100.00
24858;BME280;12935;50.782;6.074;2022-08-19T08:02:44;99460.63;;;20.18;100.00
24858;BME280;12935;50.782;6.074;2022-08-19T08:05:10;99468.03;;;20.21;100.00
24858;BME280;12935;50.782;6.074;2022-08-19T08:07:54;99461.78;;;20.57;100.00
24858;BME280;12935;50.782;6.074;2022-08-19T08:10:38;99469.31;;;20.65;100.00
24858;BME280;12935;50.782;6.074;2022-08-19T08:13:03;99461.91;;;20.90;100.00
24858;BME280;12935;50.782;6.074;2022-08-19T08:15:30;99457.59;;;20.80;100.00
24858;BME280;12935;50.782;6.074;2022-08-19T08:17:56;99458.34;;;20.98;100.00
24858;BME280;12935;50.782;6.074;2022-08-19T08:20:23;99464.06;;;20.95;100.00
24858;BME280;12935;50.782;6.074;2022-08-19T08:22:49;99460.53;;;20.76;100.00
24858;BME280;12935;50.782;6.074;2022-08-19T08:25:34;99464.69;;;20.72;100.00
24858;BME280;12935;50.782;6.074;2022-08-19T08:28:01;99467.03;;;20.73;100.00
24858;BME280;12935;50.782;6.074;2022-08-19T08:30:28;99459.44;;;20.83;100.00
24858;BME280;12935;50.782;6.074;2022-08-19T08:32:54;99473.16;;;20.50;100.00
24858;BME280;12935;50.782;6.074;2022-08-19T08:35:21;99478.22;;;20.33;100.00
24858;BME280;12935;50.782;6.074;2022-08-19T08:37:49;99479.28;;;20.26;100.00
24858;BME280;12935;50.782;6.074;2022-08-19T08:40:30;99472.19;;;20.35;100.00
24858;BME280;12935;50.782;6.074;2022-08-19T08:43:05;99479.34;;;20.54;100.00
24858;BME280;12935;50.782;6.074;2022-08-19T08:45:35;99474.84;;;20.29;100.00
24858;BME280;12935;50.782;6.074;2022-08-19T08:48:07;99475.88;;;20.22;100.00
24858;BME280;12935;50.782;6.074;2022-08-19T08:50:42;99490.41;;;20.36;100.00
24858;BME280;12935;50.782;6.074;2022-08-19T08:53:10;99489.69;;;20.53;100.00
24858;BME280;12935;50.782;6.074;2022-08-19T08:55:36;99488.00;;;20.74;100.00
24858;BME280;12935;50.782;6.074;2022-08-19T08:58:26;99483.66;;;21.00;100.00
24858;BME280;12935;50.782;6.074;2022-08-19T09:00:52;99477.97;;;20.77;100.00
24858;BME280;12935;50.782;6.074;2022-08-19T09:03:19;99483.50;;;20.67;100.00
24858;BME280;12935;50.782;6.074;2022-08-19T09:08:45;99478.56;;;20.99;100.00
24858;BME280;12935;50.782;6.074;2022-08-19T09:11:19;99466.69;;;20.98;100.00
24858;BME280;12935;50.782;6.074;2022-08-19T09:16:45;99472.81;;;21.30;100.00
24858;BME280;12935;50.782;6.074;2022-08-19T09:19:10;99473.47;;;21.25;100.00
24858;BME280;12935;50.782;6.074;2022-08-19T09:21:35;99478.38;;;21.39;100.00
24858;BME280;12935;50.782;6.074;2022-08-19T09:24:02;99472.56;;;21.61;100.00
24858;BME280;12935;50.782;6.074;2022-08-19T09:26:28;99473.94;;;21.65;100.00
24858;BME280;12935;50.782;6.074;2022-08-19T09:28:54;99472.16;;;21.86;100.00
24858;BME280;12935;50.782;6.074;2022-08-19T09:31:25;99462.91;;;22.13;100.00
24858;BME280;12935;50.782;6.074;2022-08-19T09:33:52;99465.63;;;22.22;100.00
24858;BME280;12935;50.782;6.074;2022-08-19T09:36:20;99472.22;;;22.34;100.00
24858;BME280;12935;50.782;6.074;2022-08-19T09:38:47;99469.31;;;22.67;100.00
24858;BME280;12935;50.782;6.074;2022-08-19T09:41:16;99459.59;;;23.01;100.00
24858;BME280;12935;50.782;6.074;2022-08-19T09:43:45;99459.03;;;23.26;99.16
24858;BME280;12935;50.782;6.074;2022-08-19T09:46:11;99457.94;;;23.68;99.54
24858;BME280;12935;50.782;6.074;2022-08-19T09:48:40;99461.84;;;24.11;96.43
24858;BME280;12935;50.782;6.074;2022-08-19T09:51:11;99460.59;;;24.12;94.03
24858;BME280;12935;50.782;6.074;2022-08-19T09:53:38;99455.53;;;23.96;89.87
24858;BME280;12935;50.782;6.074;2022-08-19T09:56:05;99461.22;;;24.01;94.73
24858;BME280;12935;50.782;6.074;2022-08-19T09:58:33;99458.53;;;23.42;92.26
24858;BME280;12935;50.782;6.074;2022-08-19T10:01:01;99452.38;;;23.38;92.71
24858;BME280;12935;50.782;6.074;2022-08-19T10:03:28;99451.22;;;23.95;91.39
24858;BME280;12935;50.782;6.074;2022-08-19T10:05:54;99455.69;;;23.87;91.21
24858;BME280;12935;50.782;6.074;2022-08-19T10:08:23;99456.06;;;23.79;90.51
24858;BME280;12935;50.782;6.074;2022-08-19T10:10:50;99455.81;;;23.63;90.91
24858;BME280;12935;50.782;6.074;2022-08-19T10:13:19;99457.78;;;23.27;88.27
24858;BME280;12935;50.782;6.074;2022-08-19T10:15:50;99452.97;;;23.28;87.06
24858;BME280;12935;50.782;6.074;2022-08-19T10:18:17;99448.97;;;23.78;86.17
24858;BME280;12935;50.782;6.074;2022-08-19T10:20:44;99444.03;;;24.23;82.74
24858;BME280;12935;50.782;6.074;2022-08-19T10:23:11;99438.78;;;24.31;82.46
24858;BME280;12935;50.782;6.074;2022-08-19T10:25:36;99441.56;;;24.31;82.58
24858;BME280;12935;50.782;6.074;2022-08-19T10:28:02;99441.41;;;23.99;80.34
24858;BME280;12935;50.782;6.074;2022-08-19T10:30:28;99440.16;;;24.21;77.54
24858;BME280;12935;50.782;6.074;2022-08-19T10:32:54;99446.34;;;24.10;78.91
24858;BME280;12935;50.782;6.074;2022-08-19T10:35:19;99445.25;;;24.63;74.47
24858;BME280;12935;50.782;6.074;2022-08-19T10:37:45;99443.06;;;25.56;71.26
24858;BME280;12935;50.782;6.074;2022-08-19T10:40:10;99446.66;;;25.56;66.94
24858;BME280;12935;50.782;6.074;2022-08-19T10:42:36;99454.63;;;26.06;65.30
24858;BME280;12935;50.782;6.074;2022-08-19T10:45:03;99441.09;;;26.52;62.55
24858;BME280;12935;50.782;6.074;2022-08-19T10:47:29;99443.56;;;26.34;65.46
24858;BME280;12935;50.782;6.074;2022-08-19T10:49:54;99447.84;;;26.24;66.90
24858;BME280;12935;50.782;6.074;2022-08-19T10:52:40;99445.09;;;25.49;66.37
24858;BME280;12935;50.782;6.074;2022-08-19T10:55:07;99442.63;;;24.79;69.95
24858;BME280;12935;50.782;6.074;2022-08-19T10:57:51;99440.31;;;24.32;73.35
24858;BME280;12935;50.782;6.074;2022-08-19T11:00:19;99435.19;;;24.71;73.60
24858;BME280;12935;50.782;6.074;2022-08-19T11:02:45;99435.53;;;25.36;68.93
24858;BME280;12935;50.782;6.074;2022-08-19T11:05:12;99439.28;;;25.59;65.94
24858;BME280;12935;50.782;6.074;2022-08-19T11:07:38;99438.38;;;26.10;62.67
24858;BME280;12935;50.782;6.074;2022-08-19T11:10:05;99434.81;;;25.72;64.37
24858;BME280;12935;50.782;6.074;2022-08-19T11:12:30;99428.56;;;25.89;63.72
24858;BME280;12935;50.782;6.074;2022-08-19T11:14:56;99436.97;;;25.89;64.65
24858;BME280;12935;50.782;6.074;2022-08-19T11:17:21;99434.16;;;26.37;62.67
24858;BME280;12935;50.782;6.074;2022-08-19T11:19:48;99433.06;;;26.99;58.07
24858;BME280;12935;50.782;6.074;2022-08-19T11:22:14;99436.75;;;26.51;58.86
24858;BME280;12935;50.782;6.074;2022-08-19T11:24:39;99445.34;;;26.31;60.94
24858;BME280;12935;50.782;6.074;2022-08-19T11:27:08;99438.63;;;26.12;62.87
24858;BME280;12935;50.782;6.074;2022-08-19T11:29:35;99447.09;;;25.80;64.51
24858;BME280;12935;50.782;6.074;2022-08-19T11:32:08;99448.28;;;25.68;63.95
24858;BME280;12935;50.782;6.074;2022-08-19T11:34:37;99448.56;;;25.70;64.40
24858;BME280;12935;50.782;6.074;2022-08-19T11:37:04;99441.50;;;25.80;63.56
24858;BME280;12935;50.782;6.074;2022-08-19T11:39:31;99447.44;;;26.47;63.11
24858;BME280;12935;50.782;6.074;2022-08-19T11:41:58;99439.97;;;27.43;57.63
24858;BME280;12935;50.782;6.074;2022-08-19T11:44:24;99435.66;;;27.53;56.72
24858;BME280;12935;50.782;6.074;2022-08-19T11:46:50;99428.50;;;27.69;54.88
24858;BME280;12935;50.782;6.074;2022-08-19T11:49:19;99421.09;;;27.60;54.31
24858;BME280;12935;50.782;6.074;2022-08-19T11:51:45;99434.78;;;26.69;56.99
24858;BME280;12935;50.782;6.074;2022-08-19T11:54:11;99426.81;;;26.50;56.48
24858;BME280;12935;50.782;6.074;2022-08-19T11:56:38;99418.28;;;27.27;55.94
24858;BME280;12935;50.782;6.074;2022-08-19T11:59:04;99421.81;;;27.94;53.92
24858;BME280;12935;50.782;6.074;2022-08-19T12:01:29;99428.72;;;28.56;51.24
24858;BME280;12935;50.782;6.074;2022-08-19T12:03:56;99431.22;;;28.66;51.79
24858;BME280;12935;50.782;6.074;2022-08-19T12:06:30;99417.22;;;29.31;48.66
24858;BME280;12935;50.782;6.074;2022-08-19T12:08:58;99421.53;;;29.08;48.45
24858;BME280;12935;50.782;6.074;2022-08-19T12:11:24;99412.47;;;29.20;45.13
24858;BME280;12935;50.782;6.074;2022-08-19T12:13:50;99419.22;;;29.42;45.91
24858;BME280;12935;50.782;6.074;2022-08-19T12:16:21;99407.47;;;29.02;45.39
24858;BME280;12935;50.782;6.074;2022-08-19T12:18:49;99413.94;;;29.27;45.64
24858;BME280;12935;50.782;6.074;2022-08-19T12:21:18;99407.50;;;29.62;45.40
24858;BME280;12935;50.782;6.074;2022-08-19T12:23:46;99407.63;;;29.99;43.26
24858;BME280;12935;50.782;6.074;2022-08-19T12:26:12;99405.81;;;30.02;44.74
24858;BME280;12935;50.782;6.074;2022-08-19T12:28:38;99404.72;;;30.48;42.47
24858;BME280;12935;50.782;6.074;2022-08-19T12:31:04;99408.50;;;30.32;41.03
24858;BME280;12935;50.782;6.074;2022-08-19T12:33:30;99409.44;;;30.21;41.54
24858;BME280;12935;50.782;6.074;2022-08-19T12:36:00;99396.13;;;29.73;42.22
24858;BME280;12935;50.782;6.074;2022-08-19T12:38:26;99392.63;;;30.10;43.63
24858;BME280;12935;50.782;6.074;2022-08-19T12:40:52;99399.69;;;30.79;40.63
24858;BME280;12935;50.782;6.074;2022-08-19T12:43:18;99387.28;;;30.07;41.59
24858;BME280;12935;50.782;6.074;2022-08-19T12:45:44;99387.47;;;30.14;42.97
24858;BME280;12935;50.782;6.074;2022-08-19T12:48:10;99392.38;;;30.70;41.31
24858;BME280;12935;50.782;6.074;2022-08-19T12:50:39;99383.16;;;30.51;41.08
24858;BME280;12935;50.782;6.074;2022-08-19T12:53:04;99379.69;;;29.77;42.22
24858;BME280;12935;50.782;6.074;2022-08-19T12:55:29;99381.50;;;28.90;44.56
24858;BME280;12935;50.782;6.074;2022-08-19T12:57:55;99380.22;;;28.91;45.39
24858;BME280;12935;50.782;6.074;2022-08-19T13:00:21;99383.94;;;29.35;45.05
24858;BME280;12935;50.782;6.074;2022-08-19T13:02:49;99383.22;;;29.59;44.07